createdAt,value
2023-05-21T00:04:36.938Z,21.70
2023-05-21T00:11:38.500Z,21.59
2023-05-21T00:18:40.072Z,21.63
2023-05-21T00:25:41.723Z,21.62
2023-05-21T00:32:43.329Z,21.63
2023-05-21T00:39:46.915Z,21.43
2023-05-21T00:46:48.880Z,21.38
2023-05-21T00:53:51.470Z,21.33
2023-05-21T01:00:55.696Z,21.29
2023-05-21T01:07:58.095Z,21.26
2023-05-21T01:15:00.454Z,21.02
2023-05-21T01:22:05.200Z,21.10
2023-05-21T01:29:06.909Z,21.10
2023-05-21T01:36:26.226Z,21.13
2023-05-21T01:43:28.031Z,21.09
2023-05-21T01:50:29.727Z,20.97
2023-05-21T01:57:31.588Z,20.76
2023-05-21T02:04:33.277Z,20.84
2023-05-21T02:11:34.982Z,20.81
2023-05-21T02:18:36.731Z,20.78
2023-05-21T02:25:38.771Z,20.73
2023-05-21T02:32:44.915Z,20.70
2023-05-21T02:39:46.805Z,20.68
2023-05-21T02:46:48.381Z,20.59
2023-05-21T02:53:51.934Z,20.51
2023-05-21T03:00:53.787Z,20.40
2023-05-21T03:07:55.667Z,20.40
2023-05-21T03:14:57.295Z,20.42
2023-05-21T03:21:58.892Z,20.37
2023-05-21T03:29:01.472Z,20.40
2023-05-21T03:36:05.509Z,20.32
2023-05-21T03:43:11.294Z,20.28
2023-05-21T03:50:13.101Z,20.14
2023-05-21T03:57:15.247Z,20.23
2023-05-21T04:04:17.691Z,20.23
2023-05-21T04:11:19.544Z,20.31
2023-05-21T04:18:22.935Z,20.30
2023-05-21T04:25:25.393Z,20.38
2023-05-21T04:32:28.604Z,20.42
2023-05-21T04:39:31.498Z,20.64
2023-05-21T04:46:34.831Z,20.71
2023-05-21T04:53:36.721Z,20.75
2023-05-21T05:00:38.782Z,20.90
2023-05-21T05:07:41.029Z,21.03
2023-05-21T05:14:43.080Z,21.06
2023-05-21T05:21:45.866Z,21.10
2023-05-21T05:28:47.644Z,21.46
2023-05-21T05:35:49.517Z,21.40
2023-05-21T05:42:52.728Z,21.41
2023-05-21T05:49:54.500Z,21.28
2023-05-21T05:56:56.436Z,21.57
2023-05-21T06:04:00.071Z,21.95
2023-05-21T06:11:01.934Z,21.95
2023-05-21T06:18:03.746Z,22.03
2023-05-21T06:25:06.970Z,22.05
2023-05-21T06:32:09.114Z,22.01
2023-05-21T06:39:13.436Z,22.09
2023-05-21T06:46:15.615Z,22.52
2023-05-21T06:53:20.211Z,22.46
2023-05-21T07:00:22.091Z,22.72
2023-05-21T07:07:25.733Z,22.61
2023-05-21T07:14:27.478Z,22.60
2023-05-21T07:21:29.267Z,22.67
2023-05-21T07:28:31.250Z,22.96
2023-05-21T07:35:32.965Z,23.18
2023-05-21T07:42:34.868Z,23.65
2023-05-21T07:49:37.641Z,24.11
2023-05-21T07:56:39.392Z,24.45
2023-05-21T08:03:43.370Z,24.26
2023-05-21T08:10:45.616Z,24.84
2023-05-21T08:17:47.955Z,25.36
2023-05-21T08:24:50.607Z,26.38
2023-05-21T08:31:52.758Z,26.39
2023-05-21T08:38:54.458Z,26.83
2023-05-21T08:46:06.619Z,27.60
2023-05-21T08:53:23.334Z,28.37
2023-05-21T09:00:30.535Z,29.15
2023-05-21T09:07:36.378Z,29.62
2023-05-21T09:14:49.614Z,28.61
2023-05-21T09:21:53.934Z,28.81
2023-05-21T09:29:01.491Z,29.36
2023-05-21T09:36:03.191Z,29.63
2023-05-21T09:43:04.929Z,29.97
2023-05-21T09:50:07.461Z,30.60
2023-05-21T09:57:09.056Z,31.96
2023-05-21T10:04:10.714Z,31.77
2023-05-21T10:11:12.476Z,32.87
2023-05-21T10:18:14.072Z,33.38
2023-05-21T10:25:15.667Z,32.69
2023-05-21T10:32:17.342Z,34.17
2023-05-21T10:39:20.727Z,34.30
2023-05-21T10:46:43.696Z,35.49
2023-05-21T10:53:53.333Z,36.08
2023-05-21T11:00:56.754Z,35.60
2023-05-21T11:07:58.600Z,35.52
2023-05-21T11:15:00.231Z,34.84
2023-05-21T11:22:01.823Z,34.02
2023-05-21T11:29:03.341Z,34.10
2023-05-21T11:36:05.564Z,34.12
2023-05-21T11:43:07.148Z,34.36
2023-05-21T11:50:12.328Z,35.15
2023-05-21T11:57:18.460Z,36.29
2023-05-21T12:04:20.728Z,36.87
2023-05-21T12:11:22.449Z,36.86
2023-05-21T12:18:25.033Z,37.85
2023-05-21T12:25:26.694Z,36.11
2023-05-21T12:32:29.239Z,36.24
2023-05-21T12:39:31.420Z,35.71
2023-05-21T12:46:33.088Z,36.35
2023-05-21T12:53:38.333Z,36.18
2023-05-21T13:00:41.892Z,36.93
2023-05-21T13:07:46.494Z,35.61
2023-05-21T13:14:51.853Z,35.65
2023-05-21T13:21:53.664Z,35.12
2023-05-21T13:28:55.494Z,35.33
2023-05-21T13:35:57.138Z,35.29
2023-05-21T13:42:58.757Z,34.96
2023-05-21T13:50:00.440Z,34.74
2023-05-21T13:57:02.037Z,35.69
2023-05-21T14:04:05.472Z,35.49
2023-05-21T14:11:07.089Z,36.06
2023-05-21T14:18:12.097Z,36.16
2023-05-21T14:25:13.734Z,35.24
2023-05-21T14:32:17.036Z,35.41
2023-05-21T14:39:18.717Z,35.75
2023-05-21T14:46:20.637Z,35.19
2023-05-21T14:53:22.279Z,35.14
2023-05-21T15:00:23.981Z,33.69
2023-05-21T15:07:25.593Z,33.08
2023-05-21T15:14:27.178Z,34.09
2023-05-21T15:21:28.776Z,33.32
2023-05-21T15:28:30.368Z,33.53
2023-05-21T15:35:32.068Z,33.40
2023-05-21T15:42:33.743Z,32.89
2023-05-21T15:49:35.425Z,32.28
2023-05-21T15:56:37.013Z,32.69
2023-05-21T16:03:38.918Z,32.80
2023-05-21T16:10:40.621Z,32.27
2023-05-21T16:17:42.373Z,32.40
2023-05-21T16:24:43.978Z,31.76
2023-05-21T16:31:45.593Z,32.35
2023-05-21T16:38:47.183Z,32.35
2023-05-21T16:45:49.092Z,30.86
2023-05-21T16:52:50.716Z,31.51
2023-05-21T16:59:52.356Z,31.45
2023-05-21T17:06:56.753Z,31.39
2023-05-21T17:13:58.320Z,31.10
2023-05-21T17:20:59.897Z,30.92
2023-05-21T17:28:01.612Z,30.99
2023-05-21T17:35:03.283Z,30.85
2023-05-21T17:42:05.039Z,30.77
2023-05-21T17:49:08.187Z,30.74
2023-05-21T17:56:11.254Z,30.59
2023-05-21T18:03:13.046Z,30.17
2023-05-21T18:10:17.544Z,29.99
2023-05-21T18:17:19.224Z,30.00
2023-05-21T18:24:20.971Z,30.03
2023-05-21T18:31:22.824Z,29.78
2023-05-21T18:38:24.672Z,29.68
2023-05-21T18:45:26.450Z,29.58
2023-05-21T18:52:28.143Z,29.37
2023-05-21T18:59:31.244Z,29.16
2023-05-21T19:06:32.962Z,29.06
2023-05-21T19:13:34.716Z,28.86
2023-05-21T19:20:36.854Z,28.74
2023-05-21T19:27:38.779Z,28.60
2023-05-21T19:34:40.835Z,28.53
2023-05-21T19:41:42.508Z,28.52
2023-05-21T19:48:44.252Z,28.23
2023-05-21T19:55:46.136Z,28.27
2023-05-21T20:02:48.019Z,28.27
2023-05-21T20:09:50.261Z,28.17
2023-05-21T20:16:53.462Z,28.11
2023-05-21T20:23:55.195Z,28.03
2023-05-21T20:30:59.893Z,27.97
2023-05-21T20:38:02.194Z,27.82
2023-05-21T20:45:04.457Z,27.69
2023-05-21T20:52:06.345Z,27.62
2023-05-21T20:59:09.270Z,27.54
2023-05-21T21:06:15.890Z,27.39
2023-05-21T21:13:18.047Z,27.30
2023-05-21T21:20:19.688Z,27.21
2023-05-21T21:27:21.310Z,27.01
2023-05-21T21:34:24.212Z,26.82
2023-05-21T21:41:25.947Z,26.70
2023-05-21T21:48:27.689Z,26.69
2023-05-21T21:55:29.656Z,26.47
2023-05-21T22:02:33.866Z,26.47
2023-05-21T22:09:36.982Z,26.37
2023-05-21T22:16:38.874Z,26.36
2023-05-21T22:23:40.533Z,26.08
2023-05-21T22:30:42.732Z,26.17
2023-05-21T22:37:44.495Z,26.12
2023-05-21T22:44:46.131Z,25.94
2023-05-21T22:51:47.778Z,26.08
2023-05-21T22:58:49.444Z,25.70
2023-05-21T23:05:51.261Z,25.82
2023-05-21T23:12:52.961Z,25.54
2023-05-21T23:19:54.655Z,25.56
2023-05-21T23:27:01.675Z,25.52
2023-05-21T23:34:04.646Z,25.15
2023-05-21T23:41:06.714Z,25.16
2023-05-21T23:48:08.514Z,25.05
2023-05-21T23:55:12.440Z,24.93
